sensor_id;sensor_type;location;lat;lon;timestamp;P1;durP1;ratioP1;P2;durP2;ratioP2
22606;SDS011;11470;20.968;105.834;2023-04-06T00:01:08;60.60;;;34.97;;
22606;SDS011;11470;20.968;105.834;2023-04-06T00:11:19;56.65;;;33.88;;
22606;SDS011;11470;20.968;105.834;2023-04-06T00:16:24;51.95;;;34.67;;
22606;SDS011;11470;20.968;105.834;2023-04-06T00:21:34;53.55;;;34.25;;
22606;SDS011;11470;20.968;105.834;2023-04-06T00:26:40;60.35;;;35.88;;
22606;SDS011;11470;20.968;105.834;2023-04-06T00:31:45;62.15;;;38.75;;
22606;SDS011;11470;20.968;105.834;2023-04-06T00:36:51;59.08;;;34.58;;
22606;SDS011;11470;20.968;105.834;2023-04-06T00:41:57;51.72;;;32.28;;
22606;SDS011;11470;20.968;105.834;2023-04-06T00:52:08;55.05;;;33.85;;
22606;SDS011;11470;20.968;105.834;2023-04-06T00:57:15;65.22;;;39.63;;
22606;SDS011;11470;20.968;105.834;2023-04-06T01:02:28;63.30;;;36.90;;
22606;SDS011;11470;20.968;105.834;2023-04-06T01:07:33;50.10;;;32.35;;
22606;SDS011;11470;20.968;105.834;2023-04-06T01:12:44;66.38;;;41.03;;
22606;SDS011;11470;20.968;105.834;2023-04-06T01:18:01;74.95;;;43.30;;
22606;SDS011;11470;20.968;105.834;2023-04-06T01:23:09;61.55;;;37.13;;
22606;SDS011;11470;20.968;105.834;2023-04-06T01:28:23;65.07;;;39.53;;
22606;SDS011;11470;20.968;105.834;2023-04-06T01:33:44;75.30;;;45.42;;
22606;SDS011;11470;20.968;105.834;2023-04-06T01:38:53;74.10;;;44.10;;
22606;SDS011;11470;20.968;105.834;2023-04-06T01:44:07;82.82;;;48.92;;
22606;SDS011;11470;20.968;105.834;2023-04-06T01:49:14;75.47;;;47.15;;
22606;SDS011;11470;20.968;105.834;2023-04-06T01:54:25;81.45;;;50.67;;
22606;SDS011;11470;20.968;105.834;2023-04-06T01:59:45;79.07;;;48.58;;
22606;SDS011;11470;20.968;105.834;2023-04-06T02:05:03;84.90;;;48.50;;
22606;SDS011;11470;20.968;105.834;2023-04-06T02:10:13;69.03;;;42.40;;
22606;SDS011;11470;20.968;105.834;2023-04-06T02:15:20;81.43;;;49.03;;
22606;SDS011;11470;20.968;105.834;2023-04-06T02:20:31;68.05;;;43.72;;
22606;SDS011;11470;20.968;105.834;2023-04-06T02:25:45;73.05;;;45.60;;
22606;SDS011;11470;20.968;105.834;2023-04-06T02:30:51;79.13;;;49.80;;
22606;SDS011;11470;20.968;105.834;2023-04-06T02:36:02;82.00;;;51.58;;
22606;SDS011;11470;20.968;105.834;2023-04-06T02:41:07;75.68;;;48.13;;
22606;SDS011;11470;20.968;105.834;2023-04-06T02:46:14;91.97;;;54.35;;
22606;SDS011;11470;20.968;105.834;2023-04-06T02:51:21;95.13;;;57.55;;
22606;SDS011;11470;20.968;105.834;2023-04-06T03:02:00;83.05;;;53.97;;
22606;SDS011;11470;20.968;105.834;2023-04-06T03:07:06;85.95;;;56.35;;
22606;SDS011;11470;20.968;105.834;2023-04-06T03:12:14;86.13;;;52.88;;
22606;SDS011;11470;20.968;105.834;2023-04-06T03:17:39;88.75;;;60.75;;
22606;SDS011;11470;20.968;105.834;2023-04-06T03:22:55;84.65;;;54.83;;
22606;SDS011;11470;20.968;105.834;2023-04-06T03:28:05;109.22;;;71.00;;
22606;SDS011;11470;20.968;105.834;2023-04-06T03:33:18;77.82;;;52.03;;
22606;SDS011;11470;20.968;105.834;2023-04-06T03:38:28;105.22;;;71.68;;
22606;SDS011;11470;20.968;105.834;2023-04-06T03:43:36;112.43;;;74.78;;
22606;SDS011;11470;20.968;105.834;2023-04-06T03:48:42;112.35;;;72.85;;
22606;SDS011;11470;20.968;105.834;2023-04-06T03:53:49;112.82;;;77.68;;
22606;SDS011;11470;20.968;105.834;2023-04-06T03:58:55;92.88;;;62.42;;
22606;SDS011;11470;20.968;105.834;2023-04-06T04:09:08;129.60;;;82.53;;
22606;SDS011;11470;20.968;105.834;2023-04-06T04:19:19;114.97;;;78.05;;
22606;SDS011;11470;20.968;105.834;2023-04-06T04:24:25;102.95;;;71.20;;
22606;SDS011;11470;20.968;105.834;2023-04-06T04:29:31;118.70;;;79.20;;
22606;SDS011;11470;20.968;105.834;2023-04-06T04:34:42;118.63;;;85.28;;
22606;SDS011;11470;20.968;105.834;2023-04-06T04:39:57;124.28;;;85.03;;
22606;SDS011;11470;20.968;105.834;2023-04-06T04:45:06;143.55;;;98.85;;
22606;SDS011;11470;20.968;105.834;2023-04-06T04:50:13;138.18;;;94.90;;
22606;SDS011;11470;20.968;105.834;2023-04-06T04:55:22;143.48;;;100.20;;
22606;SDS011;11470;20.968;105.834;2023-04-06T05:00:31;124.10;;;84.45;;
22606;SDS011;11470;20.968;105.834;2023-04-06T05:05:37;144.95;;;101.90;;
22606;SDS011;11470;20.968;105.834;2023-04-06T05:10:46;100.03;;;71.43;;
22606;SDS011;11470;20.968;105.834;2023-04-06T05:15:54;145.75;;;104.97;;
22606;SDS011;11470;20.968;105.834;2023-04-06T05:21:04;142.50;;;104.60;;
22606;SDS011;11470;20.968;105.834;2023-04-06T05:26:18;136.13;;;98.28;;
22606;SDS011;11470;20.968;105.834;2023-04-06T05:31:31;128.30;;;90.15;;
22606;SDS011;11470;20.968;105.834;2023-04-06T05:36:37;147.82;;;103.10;;
22606;SDS011;11470;20.968;105.834;2023-04-06T05:41:52;133.63;;;95.32;;
22606;SDS011;11470;20.968;105.834;2023-04-06T05:47:13;119.47;;;87.90;;
22606;SDS011;11470;20.968;105.834;2023-04-06T05:52:24;119.80;;;88.68;;
22606;SDS011;11470;20.968;105.834;2023-04-06T05:57:30;130.40;;;95.95;;
22606;SDS011;11470;20.968;105.834;2023-04-06T06:02:38;126.70;;;93.22;;
22606;SDS011;11470;20.968;105.834;2023-04-06T06:08:01;137.65;;;93.63;;
22606;SDS011;11470;20.968;105.834;2023-04-06T06:13:07;127.25;;;91.35;;
22606;SDS011;11470;20.968;105.834;2023-04-06T06:18:14;124.32;;;81.85;;
22606;SDS011;11470;20.968;105.834;2023-04-06T06:23:23;124.70;;;92.55;;
22606;SDS011;11470;20.968;105.834;2023-04-06T06:28:29;129.95;;;91.55;;
22606;SDS011;11470;20.968;105.834;2023-04-06T06:33:36;122.80;;;94.30;;
22606;SDS011;11470;20.968;105.834;2023-04-06T06:38:42;130.90;;;96.70;;
22606;SDS011;11470;20.968;105.834;2023-04-06T06:43:51;128.23;;;96.68;;
22606;SDS011;11470;20.968;105.834;2023-04-06T06:48:58;120.53;;;87.65;;
22606;SDS011;11470;20.968;105.834;2023-04-06T06:54:04;105.47;;;80.72;;
22606;SDS011;11470;20.968;105.834;2023-04-06T06:59:12;126.85;;;92.95;;
22606;SDS011;11470;20.968;105.834;2023-04-06T07:04:20;120.28;;;89.68;;
22606;SDS011;11470;20.968;105.834;2023-04-06T07:14:32;122.90;;;89.40;;
22606;SDS011;11470;20.968;105.834;2023-04-06T07:19:38;124.70;;;88.65;;
22606;SDS011;11470;20.968;105.834;2023-04-06T07:24:45;107.15;;;79.10;;
22606;SDS011;11470;20.968;105.834;2023-04-06T07:29:50;106.40;;;79.18;;
22606;SDS011;11470;20.968;105.834;2023-04-06T07:34:56;110.95;;;78.30;;
22606;SDS011;11470;20.968;105.834;2023-04-06T07:40:02;103.93;;;76.70;;
22606;SDS011;11470;20.968;105.834;2023-04-06T07:45:09;114.88;;;80.43;;
22606;SDS011;11470;20.968;105.834;2023-04-06T07:50:15;120.95;;;75.07;;
22606;SDS011;11470;20.968;105.834;2023-04-06T07:55:25;105.95;;;76.43;;
22606;SDS011;11470;20.968;105.834;2023-04-06T08:05:36;114.20;;;81.15;;
22606;SDS011;11470;20.968;105.834;2023-04-06T08:10:42;107.38;;;78.03;;
22606;SDS011;11470;20.968;105.834;2023-04-06T08:15:48;100.30;;;73.97;;
22606;SDS011;11470;20.968;105.834;2023-04-06T08:20:54;111.30;;;75.35;;
22606;SDS011;11470;20.968;105.834;2023-04-06T08:26:02;106.43;;;71.15;;
22606;SDS011;11470;20.968;105.834;2023-04-06T08:31:08;105.07;;;76.50;;
22606;SDS011;11470;20.968;105.834;2023-04-06T08:36:14;103.65;;;70.07;;
22606;SDS011;11470;20.968;105.834;2023-04-06T08:41:24;84.90;;;60.05;;
22606;SDS011;11470;20.968;105.834;2023-04-06T08:46:30;102.43;;;68.38;;
22606;SDS011;11470;20.968;105.834;2023-04-06T08:51:36;92.13;;;64.88;;
22606;SDS011;11470;20.968;105.834;2023-04-06T08:56:45;95.25;;;62.70;;
22606;SDS011;11470;20.968;105.834;2023-04-06T09:01:56;91.93;;;61.53;;
22606;SDS011;11470;20.968;105.834;2023-04-06T09:07:44;82.38;;;57.50;;
22606;SDS011;11470;20.968;105.834;2023-04-06T09:13:14;89.30;;;63.03;;
22606;SDS011;11470;20.968;105.834;2023-04-06T09:18:31;87.05;;;60.63;;
22606;SDS011;11470;20.968;105.834;2023-04-06T09:28:49;84.53;;;55.75;;
22606;SDS011;11470;20.968;105.834;2023-04-06T09:33:58;81.78;;;57.08;;
22606;SDS011;11470;20.968;105.834;2023-04-06T09:39:04;73.18;;;52.20;;
22606;SDS011;11470;20.968;105.834;2023-04-06T09:44:12;84.65;;;56.83;;
22606;SDS011;11470;20.968;105.834;2023-04-06T09:49:18;86.78;;;53.17;;
22606;SDS011;11470;20.968;105.834;2023-04-06T09:54:25;80.38;;;54.67;;
22606;SDS011;11470;20.968;105.834;2023-04-06T10:04:50;78.85;;;49.05;;
22606;SDS011;11470;20.968;105.834;2023-04-06T10:10:02;76.05;;;47.05;;
22606;SDS011;11470;20.968;105.834;2023-04-06T10:15:08;71.22;;;47.35;;
22606;SDS011;11470;20.968;105.834;2023-04-06T10:20:21;84.00;;;55.28;;
22606;SDS011;11470;20.968;105.834;2023-04-06T10:25:33;84.88;;;52.35;;
22606;SDS011;11470;20.968;105.834;2023-04-06T10:30:42;72.72;;;47.85;;
22606;SDS011;11470;20.968;105.834;2023-04-06T10:35:49;69.65;;;45.90;;
22606;SDS011;11470;20.968;105.834;2023-04-06T10:40:56;64.15;;;45.53;;
22606;SDS011;11470;20.968;105.834;2023-04-06T10:46:15;71.78;;;46.00;;
22606;SDS011;11470;20.968;105.834;2023-04-06T10:51:37;67.88;;;46.13;;
22606;SDS011;11470;20.968;105.834;2023-04-06T10:56:44;78.60;;;48.88;;
22606;SDS011;11470;20.968;105.834;2023-04-06T11:12:02;56.53;;;32.08;;
22606;SDS011;11470;20.968;105.834;2023-04-06T11:17:07;63.70;;;38.30;;
22606;SDS011;11470;20.968;105.834;2023-04-06T11:22:14;64.82;;;34.17;;
22606;SDS011;11470;20.968;105.834;2023-04-06T11:27:20;62.95;;;34.17;;
22606;SDS011;11470;20.968;105.834;2023-04-06T11:32:29;66.60;;;40.33;;
22606;SDS011;11470;20.968;105.834;2023-04-06T11:37:43;62.85;;;31.73;;
22606;SDS011;11470;20.968;105.834;2023-04-06T11:42:53;52.20;;;29.88;;
22606;SDS011;11470;20.968;105.834;2023-04-06T11:48:18;63.63;;;34.08;;
22606;SDS011;11470;20.968;105.834;2023-04-06T11:53:28;58.90;;;33.00;;
22606;SDS011;11470;20.968;105.834;2023-04-06T11:58:33;49.63;;;26.77;;
22606;SDS011;11470;20.968;105.834;2023-04-06T12:03:40;63.65;;;36.83;;
22606;SDS011;11470;20.968;105.834;2023-04-06T12:13:51;60.05;;;37.75;;
22606;SDS011;11470;20.968;105.834;2023-04-06T12:19:01;60.17;;;36.47;;
22606;SDS011;11470;20.968;105.834;2023-04-06T12:30:02;38.95;;;20.70;;
22606;SDS011;11470;20.968;105.834;2023-04-06T12:35:09;54.45;;;30.88;;
22606;SDS011;11470;20.968;105.834;2023-04-06T12:40:17;61.53;;;35.28;;
22606;SDS011;11470;20.968;105.834;2023-04-06T12:45:22;54.35;;;36.47;;
22606;SDS011;11470;20.968;105.834;2023-04-06T12:50:29;53.88;;;37.38;;
22606;SDS011;11470;20.968;105.834;2023-04-06T12:55:34;57.78;;;36.58;;
22606;SDS011;11470;20.968;105.834;2023-04-06T13:00:40;58.47;;;36.63;;
22606;SDS011;11470;20.968;105.834;2023-04-06T13:05:52;73.57;;;42.42;;
22606;SDS011;11470;20.968;105.834;2023-04-06T13:11:01;62.63;;;38.78;;
22606;SDS011;11470;20.968;105.834;2023-04-06T13:16:32;69.53;;;43.17;;
22606;SDS011;11470;20.968;105.834;2023-04-06T13:21:38;61.13;;;35.70;;
22606;SDS011;11470;20.968;105.834;2023-04-06T13:26:50;62.28;;;40.22;;
22606;SDS011;11470;20.968;105.834;2023-04-06T13:31:55;59.65;;;38.47;;
22606;SDS011;11470;20.968;105.834;2023-04-06T13:37:09;66.10;;;42.90;;
22606;SDS011;11470;20.968;105.834;2023-04-06T13:42:32;84.35;;;55.75;;
22606;SDS011;11470;20.968;105.834;2023-04-06T13:47:42;66.95;;;43.42;;
22606;SDS011;11470;20.968;105.834;2023-04-06T13:52:48;83.18;;;56.08;;
22606;SDS011;11470;20.968;105.834;2023-04-06T13:57:55;77.45;;;47.80;;
22606;SDS011;11470;20.968;105.834;2023-04-06T14:03:03;85.05;;;51.85;;
22606;SDS011;11470;20.968;105.834;2023-04-06T14:08:19;83.10;;;43.67;;
22606;SDS011;11470;20.968;105.834;2023-04-06T14:13:36;85.70;;;49.63;;
22606;SDS011;11470;20.968;105.834;2023-04-06T14:18:51;82.15;;;41.42;;
22606;SDS011;11470;20.968;105.834;2023-04-06T14:29:51;86.18;;;48.55;;
22606;SDS011;11470;20.968;105.834;2023-04-06T14:35:11;76.40;;;41.13;;
22606;SDS011;11470;20.968;105.834;2023-04-06T14:40:36;91.57;;;50.25;;
22606;SDS011;11470;20.968;105.834;2023-04-06T14:45:50;76.93;;;42.47;;
22606;SDS011;11470;20.968;105.834;2023-04-06T14:50:56;78.25;;;41.60;;
22606;SDS011;11470;20.968;105.834;2023-04-06T14:56:06;85.90;;;47.55;;
22606;SDS011;11470;20.968;105.834;2023-04-06T15:01:16;65.70;;;36.83;;
22606;SDS011;11470;20.968;105.834;2023-04-06T15:06:26;43.10;;;21.13;;
22606;SDS011;11470;20.968;105.834;2023-04-06T15:11:35;57.58;;;30.35;;
22606;SDS011;11470;20.968;105.834;2023-04-06T15:16:41;86.53;;;47.38;;
22606;SDS011;11470;20.968;105.834;2023-04-06T15:21:46;82.85;;;47.28;;
22606;SDS011;11470;20.968;105.834;2023-04-06T15:26:53;84.35;;;46.38;;
22606;SDS011;11470;20.968;105.834;2023-04-06T15:31:59;68.95;;;39.78;;
22606;SDS011;11470;20.968;105.834;2023-04-06T15:37:06;65.97;;;38.58;;
22606;SDS011;11470;20.968;105.834;2023-04-06T15:42:12;65.85;;;39.38;;
22606;SDS011;11470;20.968;105.834;2023-04-06T15:47:22;75.68;;;43.65;;
22606;SDS011;11470;20.968;105.834;2023-04-06T15:52:28;82.00;;;46.47;;
22606;SDS011;11470;20.968;105.834;2023-04-06T15:57:35;66.43;;;41.95;;
22606;SDS011;11470;20.968;105.834;2023-04-06T16:02:43;70.57;;;41.70;;
22606;SDS011;11470;20.968;105.834;2023-04-06T16:07:49;73.85;;;42.20;;
22606;SDS011;11470;20.968;105.834;2023-04-06T16:12:58;74.47;;;44.15;;
22606;SDS011;11470;20.968;105.834;2023-04-06T16:18:04;71.47;;;41.70;;
22606;SDS011;11470;20.968;105.834;2023-04-06T16:23:09;75.82;;;42.85;;
22606;SDS011;11470;20.968;105.834;2023-04-06T16:28:15;84.50;;;47.40;;
22606;SDS011;11470;20.968;105.834;2023-04-06T16:33:20;74.53;;;44.53;;
22606;SDS011;11470;20.968;105.834;2023-04-06T16:38:26;78.50;;;46.58;;
22606;SDS011;11470;20.968;105.834;2023-04-06T16:43:39;85.32;;;47.05;;
22606;SDS011;11470;20.968;105.834;2023-04-06T16:48:44;70.80;;;42.83;;
22606;SDS011;11470;20.968;105.834;2023-04-06T16:53:49;65.63;;;38.80;;
22606;SDS011;11470;20.968;105.834;2023-04-06T16:58:54;85.17;;;47.27;;
22606;SDS011;11470;20.968;105.834;2023-04-06T17:04:00;65.78;;;41.30;;
22606;SDS011;11470;20.968;105.834;2023-04-06T17:09:06;53.47;;;34.78;;
22606;SDS011;11470;20.968;105.834;2023-04-06T17:14:11;71.43;;;41.60;;
22606;SDS011;11470;20.968;105.834;2023-04-06T17:19:17;70.18;;;43.20;;
22606;SDS011;11470;20.968;105.834;2023-04-06T17:24:22;75.22;;;43.42;;
22606;SDS011;11470;20.968;105.834;2023-04-06T17:29:28;79.97;;;43.92;;
22606;SDS011;11470;20.968;105.834;2023-04-06T17:34:33;82.68;;;48.25;;
22606;SDS011;11470;20.968;105.834;2023-04-06T17:44:44;91.50;;;53.30;;
22606;SDS011;11470;20.968;105.834;2023-04-06T17:49:54;91.95;;;51.35;;
22606;SDS011;11470;20.968;105.834;2023-04-06T17:55:00;89.20;;;47.08;;
22606;SDS011;11470;20.968;105.834;2023-04-06T18:00:05;88.43;;;52.22;;
22606;SDS011;11470;20.968;105.834;2023-04-06T18:10:16;84.75;;;48.92;;
22606;SDS011;11470;20.968;105.834;2023-04-06T18:20:26;75.50;;;43.03;;
22606;SDS011;11470;20.968;105.834;2023-04-06T18:25:36;65.97;;;40.42;;
22606;SDS011;11470;20.968;105.834;2023-04-06T18:30:42;57.60;;;33.08;;
22606;SDS011;11470;20.968;105.834;2023-04-06T18:35:47;55.87;;;35.40;;
22606;SDS011;11470;20.968;105.834;2023-04-06T18:40:53;54.20;;;32.50;;
22606;SDS011;11470;20.968;105.834;2023-04-06T18:45:59;47.72;;;28.85;;
22606;SDS011;11470;20.968;105.834;2023-04-06T18:51:04;39.03;;;25.15;;
22606;SDS011;11470;20.968;105.834;2023-04-06T18:56:16;41.27;;;27.00;;
22606;SDS011;11470;20.968;105.834;2023-04-06T19:01:23;41.75;;;27.52;;
22606;SDS011;11470;20.968;105.834;2023-04-06T19:06:32;40.45;;;27.50;;
22606;SDS011;11470;20.968;105.834;2023-04-06T19:11:38;36.22;;;25.05;;
22606;SDS011;11470;20.968;105.834;2023-04-06T19:16:43;33.00;;;21.73;;
22606;SDS011;11470;20.968;105.834;2023-04-06T19:21:55;39.45;;;26.52;;
22606;SDS011;11470;20.968;105.834;2023-04-06T19:27:02;38.30;;;23.58;;
22606;SDS011;11470;20.968;105.834;2023-04-06T19:32:07;36.88;;;24.48;;
22606;SDS011;11470;20.968;105.834;2023-04-06T19:37:14;38.38;;;23.08;;
22606;SDS011;11470;20.968;105.834;2023-04-06T19:42:20;34.90;;;23.25;;
22606;SDS011;11470;20.968;105.834;2023-04-06T19:47:25;35.60;;;24.30;;
22606;SDS011;11470;20.968;105.834;2023-04-06T19:52:31;32.40;;;22.60;;
22606;SDS011;11470;20.968;105.834;2023-04-06T19:57:36;35.15;;;19.70;;
22606;SDS011;11470;20.968;105.834;2023-04-06T20:02:42;32.50;;;21.77;;
22606;SDS011;11470;20.968;105.834;2023-04-06T20:07:48;32.70;;;21.88;;
22606;SDS011;11470;20.968;105.834;2023-04-06T20:12:57;31.70;;;21.40;;
22606;SDS011;11470;20.968;105.834;2023-04-06T20:18:04;29.98;;;21.17;;
22606;SDS011;11470;20.968;105.834;2023-04-06T20:23:09;31.92;;;20.75;;
22606;SDS011;11470;20.968;105.834;2023-04-06T20:28:15;30.83;;;20.30;;
22606;SDS011;11470;20.968;105.834;2023-04-06T20:33:20;30.40;;;19.80;;
22606;SDS011;11470;20.968;105.834;2023-04-06T20:38:26;31.17;;;20.77;;
22606;SDS011;11470;20.968;105.834;2023-04-06T20:43:35;34.45;;;20.27;;
22606;SDS011;11470;20.968;105.834;2023-04-06T20:53:45;30.58;;;19.35;;
22606;SDS011;11470;20.968;105.834;2023-04-06T20:58:51;30.65;;;19.10;;
22606;SDS011;11470;20.968;105.834;2023-04-06T21:03:57;27.02;;;18.33;;
22606;SDS011;11470;20.968;105.834;2023-04-06T21:09:05;29.35;;;19.75;;
22606;SDS011;11470;20.968;105.834;2023-04-06T21:14:10;24.30;;;17.40;;
22606;SDS011;11470;20.968;105.834;2023-04-06T21:19:15;31.73;;;19.40;;
22606;SDS011;11470;20.968;105.834;2023-04-06T21:24:20;29.75;;;17.60;;
22606;SDS011;11470;20.968;105.834;2023-04-06T21:29:26;27.23;;;17.73;;
22606;SDS011;11470;20.968;105.834;2023-04-06T21:39:36;27.00;;;17.95;;
22606;SDS011;11470;20.968;105.834;2023-04-06T21:44:42;28.38;;;18.02;;
22606;SDS011;11470;20.968;105.834;2023-04-06T21:49:47;32.45;;;20.05;;
22606;SDS011;11470;20.968;105.834;2023-04-06T21:54:52;24.70;;;16.80;;
22606;SDS011;11470;20.968;105.834;2023-04-06T21:59:57;32.10;;;19.13;;
22606;SDS011;11470;20.968;105.834;2023-04-06T22:05:03;33.03;;;19.13;;
22606;SDS011;11470;20.968;105.834;2023-04-06T22:10:09;27.88;;;17.15;;
22606;SDS011;11470;20.968;105.834;2023-04-06T22:15:15;28.95;;;17.33;;
22606;SDS011;11470;20.968;105.834;2023-04-06T22:20:21;28.58;;;18.15;;
22606;SDS011;11470;20.968;105.834;2023-04-06T22:25:26;27.60;;;17.53;;
22606;SDS011;11470;20.968;105.834;2023-04-06T22:30:32;26.38;;;17.13;;
22606;SDS011;11470;20.968;105.834;2023-04-06T22:35:37;23.38;;;15.75;;
22606;SDS011;11470;20.968;105.834;2023-04-06T22:40:43;33.33;;;18.70;;
22606;SDS011;11470;20.968;105.834;2023-04-06T22:45:49;32.95;;;19.98;;
22606;SDS011;11470;20.968;105.834;2023-04-06T22:50:54;28.77;;;16.98;;
22606;SDS011;11470;20.968;105.834;2023-04-06T23:01:05;24.90;;;15.73;;
22606;SDS011;11470;20.968;105.834;2023-04-06T23:06:11;27.48;;;17.80;;
22606;SDS011;11470;20.968;105.834;2023-04-06T23:11:16;22.00;;;15.50;;
22606;SDS011;11470;20.968;105.834;2023-04-06T23:16:22;22.02;;;14.93;;
22606;SDS011;11470;20.968;105.834;2023-04-06T23:21:28;24.48;;;15.68;;
22606;SDS011;11470;20.968;105.834;2023-04-06T23:26:34;21.02;;;14.00;;
22606;SDS011;11470;20.968;105.834;2023-04-06T23:31:55;20.83;;;13.70;;
22606;SDS011;11470;20.968;105.834;2023-04-06T23:37:02;20.42;;;13.48;;
22606;SDS011;11470;20.968;105.834;2023-04-06T23:42:07;20.55;;;14.32;;
22606;SDS011;11470;20.968;105.834;2023-04-06T23:47:13;16.45;;;12.05;;
22606;SDS011;11470;20.968;105.834;2023-04-06T23:52:19;22.83;;;14.60;;
22606;SDS011;11470;20.968;105.834;2023-04-06T23:57:24;22.10;;;15.85;;
